Chadstone Weather > Observations for 15/03/21

Select Day:



Observations
Time Temp Hum DP Wind Gust Dir Rain >9am Press
C % C kph kph mm hPa
00:00 13.7 71 8.5 0.0 1.1 NE 0.0 1007.3
00:10 13.3 72 8.4 0.1 2.5 NW 0.0 1007.2
00:20 13.2 72 8.3 0.1 2.5 NNW 0.0 1007.3
00:30 13.0 73 8.3 0.0 0.0 N 0.0 1007.2
00:40 12.7 74 8.2 0.0 2.5 N 0.0 1007.3
00:50 12.7 74 8.2 1.4 3.6 NW 0.0 1007.3
01:00 12.7 75 8.4 0.0 2.5 N 0.0 1007.3
01:10 12.7 75 8.4 0.0 1.1 N 0.0 1007.3
01:20 12.6 76 8.5 0.9 3.6 N 0.0 1007.2
01:30 12.6 76 8.5 1.4 5.0 NW 0.0 1007.2
01:40 12.6 76 8.5 3.2 6.1 NW 0.0 1007.5
01:50 12.5 75 8.2 2.4 5.0 N 0.0 1007.2
02:00 12.5 75 8.2 0.8 6.1 NNW 0.0 1007.2
02:10 12.3 75 8.0 0.5 3.6 N 0.0 1007.1
02:20 12.1 75 7.8 1.2 5.0 NW 0.0 1007.2
02:30 12.1 75 7.8 2.1 5.0 N 0.0 1007.1
02:40 12.1 74 7.6 3.3 8.6 NNW 0.0 1007.0
02:50 12.0 74 7.5 1.9 5.0 N 0.0 1006.8
03:00 11.9 75 7.6 0.6 3.6 N 0.0 1006.8
03:10 11.8 75 7.5 2.0 6.1 N 0.0 1006.9
03:20 11.8 75 7.5 1.2 5.0 N 0.0 1007.0
03:30 11.6 75 7.3 2.5 5.0 N 0.0 1006.9
03:40 11.6 76 7.5 2.0 6.1 N 0.0 1006.9
03:50 11.4 76 7.3 3.1 5.0 N 0.0 1007.0
04:00 11.4 76 7.3 0.4 7.2 N 0.0 1007.0
04:10 11.4 76 7.3 2.9 7.2 N 0.0 1006.9
04:20 11.3 77 7.4 2.2 7.2 N 0.0 1006.8
04:30 11.3 77 7.4 1.9 6.1 NNW 0.0 1006.8
04:40 11.2 77 7.3 2.2 6.1 NNW 0.0 1006.9
04:50 11.2 77 7.3 1.9 7.2 NNW 0.0 1006.9
05:00 11.1 78 7.4 2.9 7.2 N 0.0 1007.0
05:10 11.0 78 7.3 1.9 5.0 NNW 0.0 1007.1
05:20 10.9 79 7.4 2.0 6.1 NNW 0.0 1007.2
05:30 10.9 80 7.6 2.1 5.0 NNW 0.0 1007.0
05:40 10.8 80 7.5 1.8 5.0 N 0.0 1007.1
05:50 10.8 80 7.5 2.2 5.0 N 0.0 1007.5
06:00 10.7 81 7.6 3.5 7.2 NNW 0.0 1007.9
06:10 10.7 81 7.6 2.6 6.1 NNW 0.0 1008.1
06:20 10.7 81 7.6 2.7 6.1 NNW 0.0 1008.3
06:30 10.6 81 7.5 3.1 6.1 NNW 0.0 1008.4
06:40 10.5 82 7.6 2.6 7.2 N 0.0 1008.5
06:50 10.5 82 7.6 2.7 7.2 N 0.0 1008.8
07:00 10.5 83 7.7 3.4 8.6 N 0.0 1008.6
07:10 10.4 83 7.6 3.6 9.7 N 0.0 1008.8
07:20 10.3 83 7.5 3.2 8.6 N 0.0 1008.9
07:30 10.4 83 7.6 2.2 7.2 NNW 0.0 1009.1
07:40 10.5 83 7.7 1.7 5.0 N 0.0 1009.4
07:50 10.5 83 7.7 2.1 7.2 NNW 0.0 1009.3
08:00 10.6 84 8.0 1.6 6.1 NNW 0.0 1009.4
08:10 10.8 84 8.2 2.8 9.7 NNE 0.0 1009.5
08:20 11.1 83 8.3 2.9 9.7 N 0.0 1009.6
08:30 11.5 83 8.7 3.3 8.6 N 0.0 1009.6
08:40 11.7 82 8.7 5.0 14.8 N 0.0 1009.7
08:50 11.9 82 8.9 4.2 9.7 NNW 0.0 1009.8
09:00 12.1 80 8.8 3.5 8.6 N 0.0 1009.8
09:10 12.4 80 9.0 4.7 12.2 NNE 0.0 1009.8
09:20 12.7 78 9.0 4.3 9.7 N 0.0 1010.0
09:30 12.8 78 9.1 5.3 11.2 NNE 0.0 1010.0
09:40 13.2 77 9.3 4.3 8.6 NE 0.0 1009.9
09:50 13.6 77 9.6 3.7 9.7 NNE 0.0 1010.0
10:00 14.3 75 9.9 3.6 7.2 N 0.0 1009.8
10:10 15.0 74 10.4 4.2 9.7 NNE 0.0 1010.0
10:20 15.3 73 10.5 5.4 8.6 NNW 0.0 1009.9
10:30 15.7 73 10.9 4.3 8.6 NNW 0.0 1009.8
10:40 16.1 72 11.1 5.0 11.2 NNW 0.0 1009.8
10:50 16.7 72 11.6 2.1 7.2 NNW 0.0 1009.6
11:00 17.1 71 11.8 4.2 8.6 N 0.0 1009.6
11:10 17.4 71 12.1 2.7 9.7 NNW 0.0 1009.7
11:20 17.8 71 12.5 4.6 11.2 W 0.0 1009.7
11:30 18.2 70 12.6 4.0 11.2 W 0.0 1009.7
11:40 18.2 69 12.4 1.8 6.1 SSW 0.0 1009.8
11:50 18.4 70 12.8 2.7 8.6 WSW 0.0 1009.7
12:00 18.6 70 13.0 2.6 7.2 W 0.0 1009.6
12:10 18.8 70 13.2 2.0 8.6 W 0.0 1009.4
12:20 19.1 68 13.1 2.5 7.2 SSW 0.0 1009.2
12:30 19.4 68 13.4 4.1 9.7 WSW 0.0 1009.1
12:40 19.5 66 13.0 1.6 8.6 WSW 0.0 1009.0
12:50 19.9 66 13.4 2.1 8.6 WSW 0.0 1008.8
13:00 20.2 64 13.2 3.0 11.2 WNW 0.0 1008.6
13:10 20.3 64 13.3 1.6 8.6 WSW 0.0 1008.5
13:20 20.6 64 13.6 1.1 7.2 SSW 0.0 1008.4
13:30 20.8 64 13.8 4.1 11.2 WNW 0.0 1008.1
13:40 21.0 62 13.5 2.9 8.6 SSW 0.0 1008.1
13:50 21.1 62 13.5 3.0 11.2 SSW 0.0 1007.9
14:00 21.2 62 13.6 2.7 9.7 SSE 0.0 1007.8
14:10 21.2 62 13.6 1.9 8.6 SW 0.0 1007.5
14:20 20.8 63 13.5 3.3 11.2 WSW 0.0 1007.7
14:30 20.5 64 13.5 2.3 11.2 WSW 0.0 1007.5
14:40 20.6 65 13.8 3.1 8.6 WNW 0.0 1007.4
14:50 20.4 64 13.4 1.3 6.1 WNW 0.0 1007.5
15:00 20.3 65 13.5 1.4 8.6 SW 0.0 1007.4
15:10 20.2 65 13.4 1.4 8.6 SSW 0.0 1007.4
15:20 20.1 66 13.6 2.1 8.6 SSW 0.0 1007.3
15:30 20.4 66 13.8 1.8 9.7 SE 0.0 1007.0
15:40 20.8 65 14.0 1.4 6.1 SSW 0.0 1006.8
15:50 20.8 64 13.8 1.7 7.2 ESE 0.0 1006.9
16:00 21.1 64 14.0 3.1 12.2 SSE 0.0 1006.8
16:10 21.0 63 13.7 5.9 13.3 SSE 0.0 1006.8
16:20 21.2 63 13.9 5.0 17.3 S 0.0 1006.7
16:30 21.1 63 13.8 3.5 15.8 S 0.0 1006.7
16:40 21.1 63 13.8 2.2 13.3 SSE 0.0 1006.7
16:50 21.0 62 13.5 1.6 13.3 S 0.0 1006.8
17:00 21.0 62 13.5 4.2 15.8 S 0.0 1006.8
17:10 21.2 62 13.6 4.0 12.2 SSE 0.0 1006.6
17:20 21.1 62 13.5 2.8 14.8 S 0.0 1006.7
17:30 20.9 64 13.8 2.6 15.8 SSW 0.0 1006.6
17:40 20.8 65 14.0 4.4 15.8 S 0.0 1006.6
17:50 20.6 66 14.0 3.3 12.2 S 0.0 1006.6
18:00 20.5 66 13.9 2.9 12.2 S 0.0 1006.6
18:10 20.5 67 14.2 1.8 9.7 S 0.0 1006.7
18:20 20.3 67 14.0 3.1 13.3 W 0.0 1006.7
18:30 20.0 67 13.7 2.8 11.2 S 0.0 1006.6
18:40 19.9 67 13.6 7.4 13.3 SSE 0.0 1006.6
18:50 19.8 68 13.7 1.5 13.3 SW 0.0 1006.6
19:00 19.7 68 13.6 2.9 14.8 SE 0.0 1006.6
19:10 19.6 68 13.5 3.6 12.2 SSE 0.0 1006.7
19:20 19.5 69 13.7 2.8 9.7 SSE 0.0 1006.7
19:30 19.6 69 13.8 3.1 12.2 SE 0.0 1006.8
19:40 19.5 69 13.7 1.2 12.2 SSW 0.0 1006.8
19:50 19.3 71 13.9 0.7 5.0 SW 0.0 1006.9
20:00 19.0 74 14.3 1.4 7.2 S 0.0 1007.0
20:10 18.7 76 14.4 0.7 3.6 SSW 0.0 1007.2
20:20 18.5 77 14.4 0.5 6.1 SW 0.0 1007.1
20:30 18.4 77 14.3 0.2 3.6 SW 0.0 1007.3
20:40 18.2 78 14.3 0.1 3.6 SSW 0.0 1007.4
20:50 18.1 79 14.4 0.5 5.0 S 0.0 1007.4
21:00 17.9 81 14.6 1.4 7.2 S 0.0 1007.6
21:10 17.9 82 14.8 1.0 6.1 SW 0.0 1007.8
21:20 17.8 83 14.9 0.7 6.1 SSW 0.0 1007.8
21:30 17.8 84 15.1 0.0 2.5 SSW 0.0 1008.0
21:40 17.8 85 15.3 0.1 3.6 SW 0.0 1008.1
21:50 17.7 85 15.2 0.5 7.2 S 0.0 1009.2
22:00 17.7 86 15.3 2.6 14.8 S 0.0 1008.6
22:10 17.6 86 15.2 3.6 14.8 SSW 0.0 1009.0
22:20 17.5 86 15.1 5.0 13.3 SE 0.0 1008.7
22:30 17.4 85 14.9 3.4 14.8 S 0.0 1009.3
22:40 17.4 85 14.9 2.1 7.2 S 0.0 1008.6
22:50 17.4 85 14.9 3.7 9.7 SSE 0.0 1009.0
23:00 17.4 84 14.7 4.7 11.2 SSE 0.0 1008.4
23:10 17.4 84 14.7 3.3 9.7 SSE 0.0 1008.9
23:20 17.3 84 14.6 3.2 13.3 S 0.0 1008.3
23:30 17.2 84 14.5 4.9 12.2 S 0.0 1009.0
23:40 17.1 84 14.4 4.4 12.2 SSE 0.0 1008.4
23:50 16.9 86 14.6 6.1 14.8 SE 0.0 1008.3